createdAt,value
2017-11-18T00:02:19.684Z,14.20
2017-11-18T00:04:47.179Z,6.22
2017-11-18T00:07:14.645Z,7.68
2017-11-18T00:09:42.195Z,6.55
2017-11-18T00:12:09.727Z,11.55
2017-11-18T00:14:37.252Z,6.70
2017-11-18T00:17:04.732Z,8.27
2017-11-18T00:19:32.218Z,14.48
2017-11-18T00:21:59.757Z,13.00
2017-11-18T00:24:27.280Z,10.95
2017-11-18T00:26:55.120Z,7.07
2017-11-18T00:29:22.651Z,6.28
2017-11-18T00:31:50.153Z,6.80
2017-11-18T00:34:17.627Z,11.52
2017-11-18T00:36:45.107Z,16.77
2017-11-18T00:39:12.663Z,9.20
2017-11-18T00:41:40.209Z,9.50
2017-11-18T00:44:07.674Z,6.57
2017-11-18T00:46:35.153Z,13.38
2017-11-18T00:49:02.620Z,8.80
2017-11-18T00:51:30.845Z,7.65
2017-11-18T00:53:58.295Z,4.95
2017-11-18T00:56:25.750Z,12.05
2017-11-18T00:58:53.218Z,5.62
2017-11-18T01:01:20.713Z,6.87
2017-11-18T01:03:48.994Z,8.45
2017-11-18T01:06:16.478Z,14.02
2017-11-18T01:08:43.977Z,6.62
2017-11-18T01:11:11.477Z,6.68
2017-11-18T01:13:39.693Z,7.68
2017-11-18T01:16:07.185Z,11.88
2017-11-18T01:18:34.649Z,5.20
2017-11-18T01:21:02.920Z,11.35
2017-11-18T01:23:30.381Z,11.90
2017-11-18T01:25:58.599Z,8.90
2017-11-18T01:28:26.097Z,13.60
2017-11-18T01:30:53.561Z,10.38
2017-11-18T01:33:21.200Z,10.15
2017-11-18T01:35:48.723Z,12.63
2017-11-18T01:38:17.034Z,9.35
2017-11-18T01:40:44.524Z,8.90
2017-11-18T01:43:12.782Z,9.63
2017-11-18T01:45:48.272Z,7.65
2017-11-18T01:48:17.339Z,7.95
2017-11-18T01:50:45.608Z,11.85
2017-11-18T01:53:13.890Z,10.32
2017-11-18T01:55:42.161Z,8.43
2017-11-18T01:58:09.642Z,11.80
2017-11-18T02:00:37.124Z,12.23
2017-11-18T02:03:04.603Z,7.93
2017-11-18T02:05:32.081Z,8.13
2017-11-18T02:07:59.566Z,12.30
2017-11-18T02:10:27.780Z,10.32
2017-11-18T02:12:55.285Z,9.07
2017-11-18T02:15:23.531Z,7.62
2017-11-18T02:17:50.979Z,7.60
2017-11-18T02:20:18.476Z,8.82
2017-11-18T02:22:46.705Z,8.07
2017-11-18T02:25:14.180Z,11.80
2017-11-18T02:27:41.691Z,9.38
2017-11-18T02:30:09.212Z,10.45
2017-11-18T02:32:36.710Z,7.25
2017-11-18T02:35:06.497Z,12.88
2017-11-18T02:37:34.747Z,9.52
2017-11-18T02:40:02.209Z,5.20
2017-11-18T02:42:29.692Z,9.75
2017-11-18T02:44:57.184Z,11.00
2017-11-18T02:47:24.684Z,14.15
2017-11-18T02:49:52.222Z,7.03
2017-11-18T02:52:19.697Z,9.98
2017-11-18T02:54:47.165Z,10.63
2017-11-18T02:57:14.703Z,8.13
2017-11-18T02:59:42.162Z,12.02
2017-11-18T03:02:09.654Z,10.15
2017-11-18T03:04:37.124Z,7.93
2017-11-18T03:07:04.575Z,15.00
2017-11-18T03:09:32.872Z,6.78
2017-11-18T03:12:00.383Z,7.05
2017-11-18T03:14:27.861Z,14.07
2017-11-18T03:16:55.322Z,14.20
2017-11-18T03:19:22.795Z,10.27
2017-11-18T03:21:50.264Z,10.90
2017-11-18T03:24:17.739Z,11.23
2017-11-18T03:26:45.214Z,11.07
2017-11-18T03:29:12.668Z,9.70
2017-11-18T03:31:40.123Z,10.25
2017-11-18T03:34:07.588Z,6.75
2017-11-18T03:36:35.039Z,7.62
2017-11-18T03:39:02.501Z,8.43
2017-11-18T03:41:29.967Z,8.57
2017-11-18T03:43:58.192Z,9.32
2017-11-18T03:46:25.654Z,10.30
2017-11-18T03:48:53.140Z,9.63
2017-11-18T03:51:20.649Z,12.55
2017-11-18T03:53:48.117Z,12.10
2017-11-18T03:56:15.585Z,10.48
2017-11-18T03:58:43.048Z,7.00
2017-11-18T04:01:10.535Z,11.15
2017-11-18T04:03:38.035Z,8.45
2017-11-18T04:06:05.514Z,8.98
2017-11-18T04:08:32.984Z,11.12
2017-11-18T04:11:01.661Z,10.77
2017-11-18T04:13:29.141Z,7.12
2017-11-18T04:15:56.615Z,10.88
2017-11-18T04:18:24.882Z,9.48
2017-11-18T04:20:52.328Z,8.32
2017-11-18T04:23:19.866Z,7.10
2017-11-18T04:25:47.372Z,14.25
2017-11-18T04:28:14.885Z,7.30
2017-11-18T04:30:42.396Z,11.40
2017-11-18T04:33:09.885Z,11.12
2017-11-18T04:35:37.396Z,12.98
2017-11-18T04:38:05.660Z,9.70
2017-11-18T04:40:33.240Z,8.75
2017-11-18T04:43:00.752Z,10.45
2017-11-18T04:45:28.248Z,8.63
2017-11-18T04:47:56.491Z,8.60
2017-11-18T04:50:23.980Z,11.63
2017-11-18T04:52:51.452Z,9.27
2017-11-18T04:55:18.951Z,12.35
2017-11-18T04:57:46.452Z,7.93
2017-11-18T05:00:13.976Z,10.18
2017-11-18T05:02:41.708Z,10.57
2017-11-18T05:05:09.293Z,9.27
2017-11-18T05:07:36.829Z,9.55
2017-11-18T05:10:04.325Z,13.85
2017-11-18T05:12:32.129Z,9.80
2017-11-18T05:14:59.650Z,12.02
2017-11-18T05:17:27.135Z,9.60
2017-11-18T05:19:55.700Z,18.52
2017-11-18T05:22:23.240Z,11.27
2017-11-18T05:24:50.897Z,16.58
2017-11-18T05:27:18.368Z,15.50
2017-11-18T05:29:45.852Z,9.30
2017-11-18T05:32:14.134Z,8.10
2017-11-18T05:34:41.592Z,10.23
2017-11-18T05:37:09.153Z,12.80
2017-11-18T05:39:36.672Z,8.68
2017-11-18T05:42:04.155Z,15.27
2017-11-18T05:44:31.623Z,8.18
2017-11-18T05:46:59.084Z,8.50
2017-11-18T05:49:26.626Z,11.10
2017-11-18T05:51:54.104Z,9.07
2017-11-18T05:54:21.570Z,9.70
2017-11-18T05:56:49.028Z,9.10
2017-11-18T05:59:16.516Z,9.38
2017-11-18T06:01:44.021Z,11.82
2017-11-18T06:04:15.149Z,13.65
2017-11-18T06:06:43.554Z,11.73
2017-11-18T06:09:11.118Z,11.77
2017-11-18T06:11:38.854Z,17.23
2017-11-18T06:14:10.492Z,11.65
2017-11-18T06:16:45.844Z,10.85
2017-11-18T06:22:22.011Z,12.13
2017-11-18T06:24:50.294Z,17.58
2017-11-18T06:27:17.797Z,9.52
2017-11-18T06:29:48.319Z,13.00
2017-11-18T06:32:20.980Z,12.77
2017-11-18T06:34:48.482Z,12.40
2017-11-18T06:37:15.955Z,9.93
2017-11-18T06:39:43.452Z,14.25
2017-11-18T06:42:11.055Z,16.62
2017-11-18T06:44:38.562Z,12.98
2017-11-18T06:47:06.796Z,14.25
2017-11-18T06:49:35.084Z,12.82
2017-11-18T06:52:02.599Z,10.48
2017-11-18T06:54:30.120Z,15.85
2017-11-18T06:56:57.616Z,10.77
2017-11-18T06:59:25.096Z,15.95
2017-11-18T07:01:52.682Z,14.18
2017-11-18T07:04:20.177Z,12.77
2017-11-18T07:06:47.684Z,16.35
2017-11-18T07:09:15.217Z,15.43
2017-11-18T07:11:42.666Z,11.82
2017-11-18T07:14:10.210Z,11.90
2017-11-18T07:16:37.760Z,12.37
2017-11-18T07:19:05.302Z,18.42
2017-11-18T07:21:32.778Z,15.43
2017-11-18T07:24:00.767Z,14.05
2017-11-18T07:26:28.230Z,15.50
2017-11-18T07:28:55.685Z,13.90
2017-11-18T07:31:23.152Z,10.95
2017-11-18T07:33:50.652Z,11.25
2017-11-18T07:36:19.425Z,11.48
2017-11-18T07:38:46.971Z,13.05
2017-11-18T07:41:14.461Z,10.32
2017-11-18T07:43:41.945Z,15.40
2017-11-18T07:46:09.501Z,10.10
2017-11-18T07:48:37.233Z,10.23
2017-11-18T07:51:04.745Z,14.40
2017-11-18T07:53:32.232Z,8.65
2017-11-18T07:55:59.733Z,16.85
2017-11-18T07:58:27.985Z,10.52
2017-11-18T08:00:56.713Z,15.75
2017-11-18T08:03:24.244Z,10.30
2017-11-18T08:05:51.737Z,15.38
2017-11-18T08:08:19.346Z,10.23
2017-11-18T08:10:46.930Z,11.38
2017-11-18T08:13:15.126Z,13.32
2017-11-18T08:15:42.631Z,9.85
2017-11-18T08:18:10.113Z,11.50
2017-11-18T08:20:37.594Z,14.27
2017-11-18T08:23:05.105Z,17.60
2017-11-18T08:25:32.611Z,9.77
2017-11-18T08:28:00.212Z,10.95
2017-11-18T08:30:27.817Z,7.90
2017-11-18T08:32:55.347Z,9.80
2017-11-18T08:35:22.842Z,9.70
2017-11-18T08:37:50.418Z,9.02
2017-11-18T08:40:18.054Z,9.20
2017-11-18T08:42:46.304Z,8.70
2017-11-18T08:45:13.792Z,11.32
2017-11-18T08:47:41.328Z,7.68
2017-11-18T08:50:08.798Z,8.82
2017-11-18T08:52:36.370Z,9.90
2017-11-18T08:55:04.642Z,13.38
2017-11-18T08:57:32.337Z,8.25
2017-11-18T08:59:59.861Z,12.93
2017-11-18T09:02:27.610Z,7.75
2017-11-18T09:04:55.359Z,6.95
2017-11-18T09:07:22.844Z,6.15
2017-11-18T09:09:50.317Z,6.78
2017-11-18T09:12:17.773Z,7.93
2017-11-18T09:14:45.228Z,12.43
2017-11-18T09:17:12.732Z,13.73
2017-11-18T09:19:40.234Z,14.23
2017-11-18T09:22:07.780Z,8.73
2017-11-18T09:24:36.097Z,6.78
2017-11-18T09:27:03.692Z,8.32
2017-11-18T09:29:31.198Z,10.73
2017-11-18T09:31:58.790Z,13.88
2017-11-18T09:34:26.305Z,8.57
2017-11-18T09:36:53.879Z,12.70
2017-11-18T09:39:22.300Z,8.30
2017-11-18T09:41:50.259Z,8.70
2017-11-18T09:44:17.782Z,6.20
2017-11-18T09:46:45.282Z,10.07
2017-11-18T09:49:12.795Z,10.18
2017-11-18T09:51:40.315Z,12.35
2017-11-18T09:54:07.855Z,10.75
2017-11-18T09:56:35.376Z,8.57
2017-11-18T09:59:02.976Z,9.38
2017-11-18T10:01:30.478Z,9.73
2017-11-18T10:03:58.158Z,8.13
2017-11-18T10:19:37.767Z,9.85
2017-11-18T10:22:05.276Z,10.60
2017-11-18T10:24:32.733Z,6.05
2017-11-18T10:27:00.211Z,9.55
2017-11-18T10:29:27.687Z,7.50
2017-11-18T10:31:55.210Z,6.37
2017-11-18T10:34:22.724Z,9.77
2017-11-18T10:36:50.253Z,10.57
2017-11-18T10:39:17.718Z,13.40
2017-11-18T10:41:45.199Z,8.05
2017-11-18T10:44:12.732Z,10.98
2017-11-18T10:46:40.263Z,8.88
2017-11-18T10:49:07.746Z,9.57
2017-11-18T10:51:35.433Z,8.65
2017-11-18T10:54:02.961Z,6.93
2017-11-18T10:56:30.531Z,11.43
2017-11-18T10:58:58.084Z,6.05
2017-11-18T11:01:25.565Z,6.43
2017-11-18T11:03:53.128Z,10.40
2017-11-18T11:06:20.591Z,8.40
2017-11-18T11:08:48.102Z,6.93
2017-11-18T11:11:15.603Z,10.90
2017-11-18T11:13:43.124Z,8.55
2017-11-18T11:16:10.593Z,13.23
2017-11-18T11:18:39.060Z,4.55
2017-11-18T11:21:06.816Z,4.95
2017-11-18T11:23:34.335Z,4.28
2017-11-18T11:26:01.929Z,2.85
2017-11-18T11:28:30.913Z,2.87
2017-11-18T11:30:58.408Z,2.55
2017-11-18T11:33:26.669Z,0.93
2017-11-18T11:35:54.150Z,1.52
2017-11-18T11:38:22.515Z,0.50
2017-11-18T11:40:50.057Z,4.22
2017-11-18T11:43:17.540Z,1.12
2017-11-18T11:45:46.765Z,1.20
2017-11-18T11:48:14.280Z,1.65
2017-11-18T11:50:41.829Z,0.82
2017-11-18T11:53:09.302Z,0.47
2017-11-18T11:55:36.772Z,0.82
2017-11-18T11:58:05.033Z,0.98
2017-11-18T12:00:32.543Z,1.70
2017-11-18T12:03:00.076Z,1.75
2017-11-18T12:05:27.631Z,1.58
2017-11-18T12:07:55.143Z,2.45
2017-11-18T12:10:22.616Z,1.20
2017-11-18T12:12:50.084Z,2.25
2017-11-18T12:15:17.607Z,0.82
2017-11-18T12:17:45.088Z,1.67
2017-11-18T12:20:12.569Z,1.37
2017-11-18T12:22:40.036Z,0.90
2017-11-18T12:25:07.552Z,1.15
2017-11-18T12:27:35.010Z,1.73
2017-11-18T12:30:02.504Z,2.40
2017-11-18T12:32:30.044Z,1.27
2017-11-18T12:34:57.527Z,0.90
2017-11-18T12:37:24.967Z,1.87
2017-11-18T12:39:52.464Z,1.17
2017-11-18T12:42:19.964Z,2.62
2017-11-18T12:44:48.243Z,1.25
2017-11-18T12:47:15.829Z,1.52
2017-11-18T12:49:43.669Z,1.10
2017-11-18T12:52:13.410Z,1.50
2017-11-18T12:54:42.170Z,1.35
2017-11-18T12:57:09.689Z,0.90
2017-11-18T12:59:37.368Z,1.95
2017-11-18T13:02:04.877Z,0.82
2017-11-18T13:04:32.521Z,1.58
2017-11-18T13:07:00.966Z,1.05
2017-11-18T13:09:28.451Z,1.10
2017-11-18T13:11:55.956Z,0.70
2017-11-18T13:14:23.463Z,1.73
2017-11-18T13:16:51.761Z,1.42
2017-11-18T13:19:19.207Z,1.95
2017-11-18T13:21:46.784Z,1.58
2017-11-18T13:24:14.227Z,2.78
2017-11-18T13:26:41.691Z,2.17
2017-11-18T13:29:09.190Z,1.98
2017-11-18T13:31:36.664Z,2.62
2017-11-18T13:34:04.363Z,3.62
2017-11-18T13:36:32.001Z,1.48
2017-11-18T13:38:59.795Z,3.47
2017-11-18T13:41:27.327Z,3.17
2017-11-18T13:43:54.847Z,1.95
2017-11-18T13:46:22.357Z,1.95
2017-11-18T13:48:51.559Z,3.20
2017-11-18T13:51:19.177Z,2.58
2017-11-18T13:53:46.679Z,3.00
2017-11-18T13:56:14.301Z,3.62
2017-11-18T13:58:41.788Z,2.15
2017-11-18T14:01:10.537Z,2.42
2017-11-18T14:03:38.056Z,2.17
2017-11-18T14:06:05.521Z,4.60
2017-11-18T14:08:32.960Z,3.08
2017-11-18T14:11:00.425Z,1.92
2017-11-18T14:13:27.924Z,3.62
2017-11-18T14:15:55.369Z,4.25
2017-11-18T14:18:22.816Z,4.15
2017-11-18T14:20:50.283Z,4.20
2017-11-18T14:23:17.756Z,7.82
2017-11-18T14:25:45.226Z,6.47
2017-11-18T14:28:12.695Z,2.25
2017-11-18T14:30:40.186Z,3.87
2017-11-18T14:33:07.700Z,2.12
2017-11-18T14:35:35.148Z,4.68
2017-11-18T14:38:02.649Z,4.55
2017-11-18T14:40:30.145Z,5.55
2017-11-18T14:42:57.635Z,5.65
2017-11-18T14:45:25.125Z,6.07
2017-11-18T14:47:52.592Z,4.95
2017-11-18T14:50:20.052Z,2.50
2017-11-18T14:52:47.510Z,4.15
2017-11-18T14:55:15.462Z,5.25
2017-11-18T14:57:42.918Z,4.90
2017-11-18T15:00:10.426Z,6.85
2017-11-18T15:02:38.001Z,8.10
2017-11-18T15:05:05.496Z,3.83
2017-11-18T15:07:32.979Z,5.82
2017-11-18T15:10:00.464Z,2.40
2017-11-18T15:12:27.917Z,5.07
2017-11-18T15:15:06.965Z,4.60
2017-11-18T15:17:40.018Z,8.30
2017-11-18T15:20:13.182Z,10.82
2017-11-18T15:22:46.220Z,3.53
2017-11-18T15:25:19.373Z,3.80
2017-11-18T15:31:15.366Z,4.70
2017-11-18T15:33:44.715Z,6.18
2017-11-18T15:39:30.127Z,8.43
2017-11-18T15:41:57.715Z,7.68
2017-11-18T15:44:45.418Z,7.80
2017-11-18T15:47:15.850Z,11.10
2017-11-18T15:49:48.984Z,5.53
2017-11-18T15:52:19.545Z,5.15
2017-11-18T15:55:08.579Z,7.72
2017-11-18T15:57:37.063Z,5.05
2017-11-18T16:00:07.941Z,7.00
2017-11-18T16:02:37.656Z,7.60
2017-11-18T16:05:06.555Z,7.40
2017-11-18T16:07:34.993Z,5.43
2017-11-18T16:10:02.840Z,9.82
2017-11-18T16:12:30.570Z,21.90
2017-11-18T16:14:58.474Z,9.25
2017-11-18T16:17:26.130Z,7.50
2017-11-18T16:19:53.841Z,9.98
2017-11-18T16:22:21.728Z,8.02
2017-11-18T16:24:49.541Z,5.03
2017-11-18T16:27:17.197Z,8.50
2017-11-18T16:29:45.934Z,7.30
2017-11-18T16:32:13.839Z,6.78
2017-11-18T16:34:41.524Z,4.03
2017-11-18T16:37:10.295Z,4.95
2017-11-18T16:39:38.054Z,5.75
2017-11-18T16:42:05.909Z,6.40
2017-11-18T16:44:33.598Z,11.07
2017-11-18T16:47:01.398Z,9.35
2017-11-18T16:49:30.037Z,9.45
2017-11-18T16:51:58.498Z,3.83
2017-11-18T16:54:26.462Z,5.82
2017-11-18T16:56:55.131Z,16.27
2017-11-18T16:59:23.942Z,8.13
2017-11-18T17:01:51.849Z,9.77
2017-11-18T17:04:20.368Z,11.88
2017-11-18T17:06:48.504Z,5.80
2017-11-18T17:09:16.165Z,7.12
2017-11-18T17:11:43.906Z,4.60
2017-11-18T17:14:11.750Z,7.22
2017-11-18T17:16:39.668Z,11.07
2017-11-18T17:19:07.406Z,5.93
2017-11-18T17:21:35.335Z,9.23
2017-11-18T17:24:03.191Z,10.73
2017-11-18T17:26:30.997Z,9.23
2017-11-18T17:28:58.992Z,6.40
2017-11-18T17:31:26.946Z,5.90
2017-11-18T17:33:55.101Z,11.48
2017-11-18T17:36:23.060Z,8.85
2017-11-18T17:38:50.718Z,19.87
2017-11-18T17:41:18.400Z,9.52
2017-11-18T17:43:46.662Z,5.10
2017-11-18T17:46:19.018Z,8.30
2017-11-18T17:48:47.001Z,12.73
2017-11-18T17:51:14.858Z,11.70
2017-11-18T17:53:44.622Z,14.15
2017-11-18T17:56:12.398Z,9.57
2017-11-18T17:58:42.161Z,9.45
2017-11-18T18:01:10.212Z,10.43
2017-11-18T18:03:37.901Z,16.42
2017-11-18T18:06:05.568Z,7.47
2017-11-18T18:08:33.346Z,13.02
2017-11-18T18:11:01.014Z,10.00
2017-11-18T18:13:29.139Z,15.60
2017-11-18T18:15:56.928Z,19.85
2017-11-18T18:18:24.705Z,8.57
2017-11-18T18:20:52.479Z,13.68
2017-11-18T18:23:20.363Z,12.13
2017-11-18T18:25:48.175Z,9.32
2017-11-18T18:28:15.977Z,9.98
2017-11-18T18:30:43.670Z,11.30
2017-11-18T18:33:11.290Z,11.02
2017-11-18T18:35:49.394Z,12.52
2017-11-18T18:38:23.821Z,15.98
2017-11-18T18:40:52.177Z,9.02
2017-11-18T18:43:20.259Z,12.13
2017-11-18T18:45:48.377Z,9.32
2017-11-18T18:48:17.998Z,8.18
2017-11-18T18:50:46.233Z,11.50
2017-11-18T18:53:20.121Z,9.07
2017-11-18T18:55:48.906Z,9.27
2017-11-18T18:58:16.892Z,8.90
2017-11-18T19:00:51.032Z,9.95
2017-11-18T19:03:20.880Z,12.45
2017-11-18T19:05:48.566Z,11.75
2017-11-18T19:08:16.192Z,11.63
2017-11-18T19:10:43.876Z,13.50
2017-11-18T19:13:11.419Z,9.18
2017-11-18T19:15:39.053Z,10.82
2017-11-18T19:18:06.640Z,11.02
2017-11-18T19:20:34.355Z,13.25
2017-11-18T19:23:01.895Z,13.95
2017-11-18T19:25:29.421Z,14.10
2017-11-18T19:27:57.072Z,9.57
2017-11-18T19:30:24.813Z,10.93
2017-11-18T19:32:52.452Z,14.25
2017-11-18T19:35:20.405Z,9.15
2017-11-18T19:37:48.057Z,16.05
2017-11-18T19:40:15.576Z,10.98
2017-11-18T19:42:43.094Z,9.60
2017-11-18T19:45:10.701Z,11.70
2017-11-18T19:47:38.280Z,14.18
2017-11-18T19:50:05.903Z,11.18
2017-11-18T19:52:33.608Z,8.63
2017-11-18T19:55:01.232Z,7.62
2017-11-18T19:57:29.643Z,8.80
2017-11-18T19:59:58.015Z,14.00
2017-11-18T20:02:25.860Z,15.88
2017-11-18T20:04:55.048Z,11.02
2017-11-18T20:07:23.046Z,7.43
2017-11-18T20:09:51.652Z,9.93
2017-11-18T20:12:20.455Z,11.82
2017-11-18T20:14:50.071Z,12.48
2017-11-18T20:17:21.027Z,13.57
2017-11-18T20:19:50.455Z,13.68
2017-11-18T20:22:17.970Z,8.65
2017-11-18T20:24:47.190Z,6.15
2017-11-18T20:27:15.005Z,10.82
2017-11-18T20:29:42.653Z,6.95
2017-11-18T20:32:11.713Z,5.10
2017-11-18T20:34:39.535Z,8.75
2017-11-18T20:37:07.920Z,4.28
2017-11-18T20:39:35.472Z,4.45
2017-11-18T20:42:03.072Z,3.83
2017-11-18T20:44:31.620Z,7.65
2017-11-18T20:46:59.774Z,7.30
2017-11-18T20:49:27.838Z,11.52
2017-11-18T20:52:00.953Z,11.32
2017-11-18T21:02:52.221Z,12.65
2017-11-18T21:05:19.781Z,4.25
2017-11-18T21:07:49.178Z,3.80
2017-11-18T21:10:17.106Z,14.20
2017-11-18T21:12:45.433Z,6.57
2017-11-18T21:15:14.619Z,10.77
2017-11-18T21:17:42.587Z,6.93
2017-11-18T21:23:14.749Z,9.38
2017-11-18T21:25:44.574Z,5.22
2017-11-18T21:28:14.465Z,11.15
2017-11-18T21:30:44.787Z,14.43
2017-11-18T21:33:12.581Z,7.57
2017-11-18T21:35:57.379Z,5.75
2017-11-18T21:38:28.292Z,3.50
2017-11-18T21:40:56.117Z,5.68
2017-11-18T21:43:24.129Z,4.15
2017-11-18T21:45:52.770Z,2.95
2017-11-18T21:48:21.304Z,5.10
2017-11-18T21:50:51.367Z,6.30
2017-11-18T21:53:23.975Z,11.63
2017-11-18T21:55:51.867Z,5.78
2017-11-18T21:58:19.573Z,3.70
2017-11-18T22:00:47.468Z,3.05
2017-11-18T22:03:19.261Z,9.27
2017-11-18T22:05:47.781Z,8.38
2017-11-18T22:08:16.079Z,6.18
2017-11-18T22:10:45.366Z,6.15
2017-11-18T22:13:15.401Z,4.55
2017-11-18T22:15:57.064Z,6.15
2017-11-18T22:18:26.385Z,8.15
2017-11-18T22:20:55.041Z,7.47
2017-11-18T22:23:26.294Z,5.90
2017-11-18T22:25:54.062Z,7.85
2017-11-18T22:28:21.700Z,4.57
2017-11-18T22:30:49.707Z,6.10
2017-11-18T22:33:17.265Z,2.70
2017-11-18T22:35:44.852Z,6.25
2017-11-18T22:38:13.596Z,8.07
2017-11-18T22:40:41.481Z,7.45
2017-11-18T22:43:25.104Z,7.40
2017-11-18T22:45:52.915Z,7.68
2017-11-18T22:48:24.884Z,9.88
2017-11-18T22:50:54.794Z,9.60
2017-11-18T22:53:22.861Z,13.88
2017-11-18T22:56:00.863Z,13.70
2017-11-18T22:58:58.477Z,9.23
2017-11-18T23:01:37.622Z,5.95
2017-11-18T23:04:07.350Z,8.93
2017-11-18T23:06:40.252Z,7.47
2017-11-18T23:09:08.230Z,13.98
2017-11-18T23:11:35.941Z,8.63
2017-11-18T23:14:09.759Z,16.87
2017-11-18T23:16:37.451Z,11.90
2017-11-18T23:37:46.078Z,4.43
2017-11-18T23:40:14.606Z,9.13
2017-11-18T23:42:43.526Z,6.62
2017-11-18T23:45:11.188Z,10.05
